Time;durP1;ratioP1;P1;durP2;ratioP2;P2;SDS_P1;SDS_P2;PMS_P1;PMS_P2;Temp;Humidity;BMP_temperature;BMP_pressure;BME280_temperature;BME280_humidity;BME280_pressure;Samples;Min_cycle;Max_cycle;Signal;HPM_P1;HPM_P2
2023/12/12 00:01:04;;;;;;;5.93;2.53;;;;;;;;;;5019692;28;20209;-27
2023/12/12 00:03:33;;;;;;;7.50;3.53;;;;;;;;;;5019167;28;20297;-27
2023/12/12 00:06:00;;;;;;;8.70;3.60;;;;;;;;;;5008665;28;20324;-29
2023/12/12 00:08:27;;;;;;;5.90;2.87;;;;;;;;;;5025781;28;20214;-26
2023/12/12 00:10:54;;;;;;;6.13;3.07;;;;;;;;;;5011735;28;20224;-28
2023/12/12 00:13:21;;;;;;;11.33;3.80;;;;;;;;;;5004594;28;20275;-27
2023/12/12 00:15:48;;;;;;;7.67;3.43;;;;;;;;;;5027885;28;20223;-28
2023/12/12 00:18:16;;;;;;;8.80;3.20;;;;;;;;;;5026547;28;20299;-27
2023/12/12 00:20:44;;;;;;;8.77;3.17;;;;;;;;;;5010908;28;20211;-29
2023/12/12 00:23:12;;;;;;;4.87;3.00;;;;;;;;;;5014101;28;20214;-29
2023/12/12 00:25:39;;;;;;;5.00;3.30;;;;;;;;;;5011521;28;20231;-26
2023/12/12 00:28:06;;;;;;;5.10;3.10;;;;;;;;;;4999136;28;20294;-28
2023/12/12 00:30:33;;;;;;;4.77;2.97;;;;;;;;;;5018338;28;20234;-28
2023/12/12 00:33:00;;;;;;;7.40;3.33;;;;;;;;;;5023823;28;20302;-27
2023/12/12 00:35:27;;;;;;;5.93;2.83;;;;;;;;;;5005824;28;20231;-29
2023/12/12 00:37:56;;;;;;;4.47;2.93;;;;;;;;;;5021227;28;20305;-28
2023/12/12 00:40:23;;;;;;;5.67;2.73;;;;;;;;;;5021949;28;20222;-29
2023/12/12 00:42:50;;;;;;;5.40;2.80;;;;;;;;;;5008447;28;20642;-28
2023/12/12 00:45:17;;;;;;;4.40;2.60;;;;;;;;;;5015010;28;20255;-28
2023/12/12 00:47:45;;;;;;;6.70;2.57;;;;;;;;;;5018514;28;20713;-28
2023/12/12 00:50:12;;;;;;;2.47;2.17;;;;;;;;;;5011478;28;20234;-29
2023/12/12 00:52:41;;;;;;;5.60;2.77;;;;;;;;;;5010208;28;20237;-28
2023/12/12 00:55:10;;;;;;;6.87;2.50;;;;;;;;;;5024633;28;20238;-30
2023/12/12 00:57:37;;;;;;;5.47;2.50;;;;;;;;;;5004377;28;20221;-29
2023/12/12 01:00:05;;;;;;;4.37;2.20;;;;;;;;;;5007468;28;20294;-28
2023/12/12 01:02:32;;;;;;;5.43;2.83;;;;;;;;;;5018694;28;20437;-28
2023/12/12 01:04:59;;;;;;;4.43;2.20;;;;;;;;;;5023433;28;20261;-28
2023/12/12 01:07:26;;;;;;;4.60;2.47;;;;;;;;;;4997230;28;20215;-30
2023/12/12 01:09:53;;;;;;;4.27;2.40;;;;;;;;;;5013763;28;20257;-29
2023/12/12 01:12:22;;;;;;;5.63;2.30;;;;;;;;;;4993043;28;20213;-28
2023/12/12 01:14:49;;;;;;;6.93;2.73;;;;;;;;;;5008855;28;20284;-28
2023/12/12 01:17:16;;;;;;;3.77;2.53;;;;;;;;;;5010551;28;20279;-29
2023/12/12 01:19:43;;;;;;;3.57;3.13;;;;;;;;;;5014706;28;20223;-28
2023/12/12 01:22:11;;;;;;;3.47;2.33;;;;;;;;;;5003022;28;20207;-28
2023/12/12 01:24:38;;;;;;;6.07;2.47;;;;;;;;;;5019341;28;20230;-26
2023/12/12 01:27:05;;;;;;;5.07;2.30;;;;;;;;;;5009258;28;20203;-28
2023/12/12 01:29:34;;;;;;;6.17;3.20;;;;;;;;;;5012062;28;20668;-26
2023/12/12 01:32:01;;;;;;;4.23;2.83;;;;;;;;;;5014918;28;20217;-29
2023/12/12 01:34:28;;;;;;;7.63;2.60;;;;;;;;;;5006748;28;20302;-27
2023/12/12 01:36:55;;;;;;;3.77;2.67;;;;;;;;;;5009832;28;20211;-27
2023/12/12 01:39:22;;;;;;;3.67;2.47;;;;;;;;;;5029232;28;20573;-27
2023/12/12 01:41:50;;;;;;;3.07;2.30;;;;;;;;;;5008473;28;20203;-29
2023/12/12 01:44:17;;;;;;;3.27;2.33;;;;;;;;;;5005740;28;20241;-28
2023/12/12 01:46:46;;;;;;;4.93;2.30;;;;;;;;;;5011080;28;20207;-26
2023/12/12 01:49:14;;;;;;;4.97;2.80;;;;;;;;;;5023585;28;20286;-26
2023/12/12 01:51:41;;;;;;;4.87;2.37;;;;;;;;;;4997761;28;20223;-28
2023/12/12 01:54:09;;;;;;;4.40;2.57;;;;;;;;;;5008976;28;20238;-26
2023/12/12 01:56:36;;;;;;;3.03;2.30;;;;;;;;;;5011842;28;20207;-26
2023/12/12 01:59:03;;;;;;;3.13;2.33;;;;;;;;;;5001369;28;20266;-27
2023/12/12 02:01:32;;;;;;;3.93;2.10;;;;;;;;;;4999126;28;20485;-27
2023/12/12 02:04:01;;;;;;;5.67;2.50;;;;;;;;;;5005903;28;20295;-28
2023/12/12 02:06:28;;;;;;;2.40;2.17;;;;;;;;;;5009397;28;20213;-29
2023/12/12 02:08:55;;;;;;;2.43;2.10;;;;;;;;;;5013102;28;20216;-27
2023/12/12 02:11:22;;;;;;;7.30;2.57;;;;;;;;;;4992624;28;20233;-29
2023/12/12 02:13:50;;;;;;;8.03;2.33;;;;;;;;;;5004739;28;20242;-26
2023/12/12 02:16:17;;;;;;;5.20;2.30;;;;;;;;;;5009026;28;20286;-28
2023/12/12 02:18:44;;;;;;;4.33;2.30;;;;;;;;;;5011981;28;20261;-26
2023/12/12 02:21:17;;;;;;;5.73;2.80;;;;;;;;;;5020588;28;20208;-26
2023/12/12 02:23:44;;;;;;;5.13;2.33;;;;;;;;;;5009704;28;20221;-26
2023/12/12 02:26:11;;;;;;;4.60;2.53;;;;;;;;;;5022732;28;20217;-26
2023/12/12 02:28:39;;;;;;;3.53;2.33;;;;;;;;;;5004312;28;20212;-29
2023/12/12 02:31:06;;;;;;;5.63;2.57;;;;;;;;;;5015836;28;20304;-26
2023/12/12 02:33:33;;;;;;;4.43;2.83;;;;;;;;;;5001456;28;20294;-28
2023/12/12 02:36:00;;;;;;;5.47;3.17;;;;;;;;;;4997012;28;20279;-27
2023/12/12 02:38:29;;;;;;;4.63;2.40;;;;;;;;;;5012472;28;20298;-26
2023/12/12 02:40:56;;;;;;;4.17;2.20;;;;;;;;;;5016480;28;20218;-30
2023/12/12 02:43:23;;;;;;;3.40;2.30;;;;;;;;;;4998180;28;20276;-25
2023/12/12 02:45:50;;;;;;;3.67;2.60;;;;;;;;;;5010798;28;20316;-27
2023/12/12 02:48:18;;;;;;;3.23;2.40;;;;;;;;;;5015572;28;20213;-28
2023/12/12 02:50:45;;;;;;;5.03;2.33;;;;;;;;;;5010097;28;20318;-30
2023/12/12 02:53:12;;;;;;;2.63;2.00;;;;;;;;;;5004994;28;20295;-28
2023/12/12 02:55:41;;;;;;;2.37;2.03;;;;;;;;;;5025081;28;20227;-26
2023/12/12 02:58:08;;;;;;;6.00;2.70;;;;;;;;;;5008657;28;20302;-28
2023/12/12 03:00:35;;;;;;;6.60;2.80;;;;;;;;;;5006342;28;20672;-30
2023/12/12 03:03:02;;;;;;;3.00;2.40;;;;;;;;;;5004719;28;20230;-26
2023/12/12 03:05:29;;;;;;;2.10;1.90;;;;;;;;;;4999499;28;20238;-28
2023/12/12 03:07:56;;;;;;;4.70;2.20;;;;;;;;;;5002327;28;20210;-28
2023/12/12 03:10:23;;;;;;;3.93;2.50;;;;;;;;;;5022475;28;20233;-28
2023/12/12 03:12:52;;;;;;;4.70;2.13;;;;;;;;;;5004947;28;20302;-28
2023/12/12 03:15:19;;;;;;;5.27;2.60;;;;;;;;;;5018699;28;20226;-32
2023/12/12 03:17:46;;;;;;;4.13;2.17;;;;;;;;;;5016593;28;20293;-29
2023/12/12 03:20:14;;;;;;;3.97;2.20;;;;;;;;;;4994774;28;20265;-28
2023/12/12 03:22:41;;;;;;;4.20;2.33;;;;;;;;;;5005766;28;20230;-26
2023/12/12 03:25:08;;;;;;;4.07;2.00;;;;;;;;;;5016382;28;20309;-28
2023/12/12 03:27:35;;;;;;;2.73;2.07;;;;;;;;;;4995114;28;20725;-29
2023/12/12 03:30:04;;;;;;;4.33;2.23;;;;;;;;;;5011157;28;20206;-29
2023/12/12 03:32:31;;;;;;;7.97;2.27;;;;;;;;;;5013268;28;20211;-29
2023/12/12 03:34:58;;;;;;;3.33;2.23;;;;;;;;;;5012892;28;20223;-26
2023/12/12 03:37:26;;;;;;;4.23;2.27;;;;;;;;;;5014194;28;20302;-27
2023/12/12 03:39:53;;;;;;;5.47;2.27;;;;;;;;;;5018065;28;20297;-28
2023/12/12 03:42:20;;;;;;;8.43;2.77;;;;;;;;;;5011266;28;20214;-25
2023/12/12 03:44:47;;;;;;;4.93;2.27;;;;;;;;;;5017872;28;20244;-29
2023/12/12 03:47:15;;;;;;;6.10;2.17;;;;;;;;;;5023299;28;20206;-29
2023/12/12 03:49:43;;;;;;;2.90;1.90;;;;;;;;;;5022562;28;20207;-28
2023/12/12 03:52:10;;;;;;;2.27;1.97;;;;;;;;;;5008813;28;20304;-25
2023/12/12 03:54:37;;;;;;;3.53;2.40;;;;;;;;;;5004581;28;20226;-32
2023/12/12 03:57:04;;;;;;;3.33;2.00;;;;;;;;;;4996271;28;20203;-30
2023/12/12 03:59:31;;;;;;;3.67;1.80;;;;;;;;;;5014172;28;20211;-27
2023/12/12 04:01:59;;;;;;;3.10;1.90;;;;;;;;;;5022074;28;20298;-27
2023/12/12 04:04:27;;;;;;;4.13;2.20;;;;;;;;;;5012992;28;20227;-28
2023/12/12 04:06:54;;;;;;;4.67;2.53;;;;;;;;;;5000721;28;20212;-29
2023/12/12 04:09:21;;;;;;;3.33;2.10;;;;;;;;;;5008546;28;20212;-27
2023/12/12 04:11:48;;;;;;;2.33;1.87;;;;;;;;;;5007724;28;20231;-28
2023/12/12 04:14:15;;;;;;;4.33;2.07;;;;;;;;;;5012538;28;20227;-27
2023/12/12 04:16:46;;;;;;;4.93;2.47;;;;;;;;;;5014813;28;20225;-28
2023/12/12 04:19:13;;;;;;;4.33;2.30;;;;;;;;;;5016895;28;20211;-26
2023/12/12 04:21:43;;;;;;;3.00;2.07;;;;;;;;;;5008365;28;20203;-30
2023/12/12 04:24:10;;;;;;;3.63;1.93;;;;;;;;;;5003781;28;20237;-26
2023/12/12 04:26:37;;;;;;;2.43;2.23;;;;;;;;;;5013832;28;20266;-28
2023/12/12 04:29:05;;;;;;;5.73;2.13;;;;;;;;;;5016417;28;20210;-27
2023/12/12 04:31:32;;;;;;;3.43;2.10;;;;;;;;;;5019285;28;20234;-28
2023/12/12 04:33:59;;;;;;;3.63;1.90;;;;;;;;;;5017225;28;20235;-28
2023/12/12 04:36:26;;;;;;;3.27;2.10;;;;;;;;;;5007394;28;20195;-28
2023/12/12 04:38:54;;;;;;;3.53;2.20;;;;;;;;;;5004246;28;20213;-26
2023/12/12 04:41:22;;;;;;;3.27;2.50;;;;;;;;;;5006671;28;20207;-27
2023/12/12 04:43:50;;;;;;;3.87;2.17;;;;;;;;;;5000904;28;20224;-26
2023/12/12 04:46:20;;;;;;;4.33;2.70;;;;;;;;;;5017401;28;20242;-28
2023/12/12 04:48:48;;;;;;;3.73;2.37;;;;;;;;;;5026226;28;20208;-26
2023/12/12 04:51:15;;;;;;;3.27;2.07;;;;;;;;;;5000566;28;20314;-29
2023/12/12 04:53:42;;;;;;;3.17;2.20;;;;;;;;;;5017411;28;20214;-28
2023/12/12 04:56:11;;;;;;;4.63;1.97;;;;;;;;;;4998751;28;20206;-28
2023/12/12 04:58:38;;;;;;;4.17;2.00;;;;;;;;;;5003539;28;20290;-30
2023/12/12 05:01:06;;;;;;;3.37;2.60;;;;;;;;;;5027486;28;20219;-26
2023/12/12 05:03:33;;;;;;;3.03;2.20;;;;;;;;;;5013609;28;20204;-28
2023/12/12 05:06:01;;;;;;;2.60;1.97;;;;;;;;;;5005193;28;20211;-28
2023/12/12 05:08:28;;;;;;;6.33;2.83;;;;;;;;;;5010441;28;20265;-25
2023/12/12 05:10:56;;;;;;;4.23;2.73;;;;;;;;;;5009312;28;20298;-27
2023/12/12 05:13:24;;;;;;;5.00;2.43;;;;;;;;;;5001447;28;20202;-27
2023/12/12 05:15:51;;;;;;;4.10;2.53;;;;;;;;;;5018292;28;20231;-27
2023/12/12 05:18:19;;;;;;;3.43;2.80;;;;;;;;;;5028815;28;20207;-28
2023/12/12 05:20:46;;;;;;;5.67;2.60;;;;;;;;;;5015047;28;20215;-27
2023/12/12 05:23:13;;;;;;;4.20;2.70;;;;;;;;;;5012551;28;20207;-30
2023/12/12 05:25:41;;;;;;;7.73;3.07;;;;;;;;;;5025441;28;20230;-27
2023/12/12 05:28:08;;;;;;;3.40;2.23;;;;;;;;;;5002329;28;20210;-28
2023/12/12 05:30:36;;;;;;;5.40;2.33;;;;;;;;;;5009244;28;20653;-25
2023/12/12 05:33:04;;;;;;;3.83;2.47;;;;;;;;;;5004455;28;20271;-25
2023/12/12 05:35:31;;;;;;;3.20;2.50;;;;;;;;;;5008492;28;20230;-28
2023/12/12 05:37:58;;;;;;;3.80;2.20;;;;;;;;;;5009897;28;20207;-26
2023/12/12 05:40:25;;;;;;;4.17;2.67;;;;;;;;;;5014442;28;20214;-27
2023/12/12 05:42:52;;;;;;;6.13;3.10;;;;;;;;;;5004699;28;20213;-27
2023/12/12 05:45:19;;;;;;;3.30;2.50;;;;;;;;;;5004133;28;20219;-26
2023/12/12 05:47:47;;;;;;;2.70;2.20;;;;;;;;;;5009166;28;20204;-28
2023/12/12 05:50:15;;;;;;;3.30;2.00;;;;;;;;;;4999558;28;20283;-27
2023/12/12 05:52:42;;;;;;;7.57;6.00;;;;;;;;;;4998442;28;20219;-27
2023/12/12 05:55:09;;;;;;;5.03;3.30;;;;;;;;;;5005179;28;20230;-25
2023/12/12 05:57:36;;;;;;;4.97;3.80;;;;;;;;;;4985838;28;20235;-28
2023/12/12 06:00:05;;;;;;;4.30;2.93;;;;;;;;;;4998638;28;20222;-25
2023/12/12 06:02:32;;;;;;;4.57;3.07;;;;;;;;;;5014191;28;20677;-27
2023/12/12 06:05:07;;;;;;;5.07;3.03;;;;;;;;;;5009977;28;20227;-28
2023/12/12 06:07:34;;;;;;;3.70;2.50;;;;;;;;;;5003168;28;20207;-28
2023/12/12 06:10:01;;;;;;;4.40;3.13;;;;;;;;;;5008426;28;20233;-27
2023/12/12 06:12:29;;;;;;;5.80;3.50;;;;;;;;;;5002675;28;20318;-27
2023/12/12 06:14:56;;;;;;;6.00;2.70;;;;;;;;;;5007128;28;20251;-26
2023/12/12 06:17:23;;;;;;;2.83;2.57;;;;;;;;;;5014399;28;20202;-26
2023/12/12 06:19:50;;;;;;;7.23;2.93;;;;;;;;;;4992952;28;20204;-29
2023/12/12 06:22:19;;;;;;;3.03;2.70;;;;;;;;;;5001412;28;20204;-27
2023/12/12 06:24:46;;;;;;;5.27;2.50;;;;;;;;;;5016451;28;20226;-26
2023/12/12 06:27:13;;;;;;;3.50;2.53;;;;;;;;;;5005185;28;20261;-27
2023/12/12 06:29:41;;;;;;;3.70;2.87;;;;;;;;;;4998127;28;20199;-27
2023/12/12 06:32:09;;;;;;;4.13;2.90;;;;;;;;;;5013885;28;20228;-25
2023/12/12 06:34:36;;;;;;;3.60;2.57;;;;;;;;;;5013408;28;20218;-26
2023/12/12 06:37:03;;;;;;;4.23;2.83;;;;;;;;;;5011096;28;20211;-28
2023/12/12 06:39:32;;;;;;;3.37;2.47;;;;;;;;;;5002323;28;20219;-28
2023/12/12 06:41:59;;;;;;;6.83;2.60;;;;;;;;;;4999148;28;20215;-26
2023/12/12 06:44:26;;;;;;;4.70;2.43;;;;;;;;;;4997253;28;20250;-28
2023/12/12 06:46:53;;;;;;;7.10;2.50;;;;;;;;;;5016218;28;20224;-28
2023/12/12 06:49:20;;;;;;;5.20;2.90;;;;;;;;;;5023666;28;20271;-26
2023/12/12 06:51:47;;;;;;;4.23;2.70;;;;;;;;;;5001115;28;20235;-29
2023/12/12 06:54:15;;;;;;;4.93;2.73;;;;;;;;;;5004433;28;20282;-28
2023/12/12 06:56:43;;;;;;;3.77;2.40;;;;;;;;;;5010905;28;20209;-28
2023/12/12 06:59:10;;;;;;;5.53;2.53;;;;;;;;;;4996496;28;20211;-28
2023/12/12 07:01:38;;;;;;;5.17;2.73;;;;;;;;;;5008223;28;20569;-27
2023/12/12 07:04:05;;;;;;;4.70;2.87;;;;;;;;;;5001866;28;20259;-27
2023/12/12 07:06:32;;;;;;;3.73;2.73;;;;;;;;;;4997833;28;20207;-28
2023/12/12 07:09:00;;;;;;;4.20;2.70;;;;;;;;;;5024286;28;20202;-28
2023/12/12 07:11:27;;;;;;;4.17;2.70;;;;;;;;;;5006150;28;20212;-26
2023/12/12 07:13:55;;;;;;;6.03;3.00;;;;;;;;;;5006408;28;20231;-29
2023/12/12 07:16:22;;;;;;;3.73;2.70;;;;;;;;;;5017575;28;20294;-27
2023/12/12 07:18:50;;;;;;;4.73;3.20;;;;;;;;;;5011369;28;20207;-26
2023/12/12 07:21:17;;;;;;;5.20;3.07;;;;;;;;;;5004532;28;20241;-27
2023/12/12 07:23:46;;;;;;;2.67;2.47;;;;;;;;;;5015506;28;20261;-27
2023/12/12 07:26:13;;;;;;;8.13;3.50;;;;;;;;;;5013093;28;20211;-29
2023/12/12 07:28:40;;;;;;;7.80;3.37;;;;;;;;;;5002983;28;20215;-26
2023/12/12 07:31:10;;;;;;;8.47;3.30;;;;;;;;;;5009241;28;20233;-26
2023/12/12 07:33:37;;;;;;;4.20;2.90;;;;;;;;;;5024883;28;20242;-27
2023/12/12 07:36:04;;;;;;;4.93;2.83;;;;;;;;;;5009756;28;20218;-27
2023/12/12 07:38:31;;;;;;;4.70;3.57;;;;;;;;;;4999319;28;20211;-27
2023/12/12 07:41:00;;;;;;;6.83;3.37;;;;;;;;;;5014886;28;20219;-32
2023/12/12 07:43:27;;;;;;;4.53;3.20;;;;;;;;;;5007642;28;20227;-28
2023/12/12 07:45:54;;;;;;;6.60;4.10;;;;;;;;;;5016483;28;20211;-29
2023/12/12 07:48:23;;;;;;;6.33;3.37;;;;;;;;;;5008181;28;20207;-28
2023/12/12 07:50:50;;;;;;;4.73;3.10;;;;;;;;;;4995863;28;20196;-29
2023/12/12 07:53:17;;;;;;;6.83;3.70;;;;;;;;;;5002151;28;20223;-27
2023/12/12 07:55:47;;;;;;;4.43;3.47;;;;;;;;;;5010858;28;20227;-28
2023/12/12 07:58:17;;;;;;;8.07;3.73;;;;;;;;;;4999940;28;20207;-26
2023/12/12 08:00:45;;;;;;;7.03;4.63;;;;;;;;;;5008824;28;20267;-29
2023/12/12 08:03:13;;;;;;;6.50;3.60;;;;;;;;;;5010883;28;20203;-28
2023/12/12 08:05:41;;;;;;;6.97;3.40;;;;;;;;;;5022217;28;20309;-26
2023/12/12 08:08:10;;;;;;;4.67;3.60;;;;;;;;;;5009134;28;20218;-28
2023/12/12 08:10:37;;;;;;;4.77;3.33;;;;;;;;;;5018359;28;20214;-26
2023/12/12 08:13:04;;;;;;;4.93;3.63;;;;;;;;;;5003268;28;20227;-26
2023/12/12 08:15:31;;;;;;;6.37;3.33;;;;;;;;;;5024987;28;20214;-28
2023/12/12 08:17:59;;;;;;;10.00;4.03;;;;;;;;;;5018052;28;20214;-27
2023/12/12 08:20:26;;;;;;;5.70;3.73;;;;;;;;;;5021566;28;20211;-25
2023/12/12 08:22:56;;;;;;;7.93;3.57;;;;;;;;;;5014270;28;20208;-26
2023/12/12 08:25:24;;;;;;;6.00;3.73;;;;;;;;;;5006662;28;20223;-28
2023/12/12 08:27:51;;;;;;;5.13;3.30;;;;;;;;;;5005281;28;20246;-27
2023/12/12 08:30:18;;;;;;;8.87;4.13;;;;;;;;;;5018705;28;20209;-27
2023/12/12 08:32:45;;;;;;;6.50;3.60;;;;;;;;;;5009027;28;20227;-27
2023/12/12 08:35:13;;;;;;;4.60;3.83;;;;;;;;;;5013804;28;20257;-28
2023/12/12 08:37:40;;;;;;;10.93;3.97;;;;;;;;;;5004447;28;20208;-25
2023/12/12 08:40:10;;;;;;;6.87;4.27;;;;;;;;;;4999996;28;20235;-27
2023/12/12 08:42:39;;;;;;;6.83;4.00;;;;;;;;;;5000211;28;20259;-28
2023/12/12 08:48:14;;;;;;;9.03;4.00;;;;;;;;;;5006660;28;20265;-29
2023/12/12 08:50:41;;;;;;;5.37;3.37;;;;;;;;;;5008942;28;20211;-27
2023/12/12 08:53:08;;;;;;;5.30;3.60;;;;;;;;;;5008447;28;20224;-28
2023/12/12 08:55:37;;;;;;;11.43;5.53;;;;;;;;;;5014084;28;20234;-26
2023/12/12 08:58:04;;;;;;;19.53;10.93;;;;;;;;;;5013197;28;20203;-28
2023/12/12 09:00:31;;;;;;;12.57;6.37;;;;;;;;;;4997916;28;20652;-27
2023/12/12 09:02:59;;;;;;;7.93;5.10;;;;;;;;;;4999763;28;20314;-28
2023/12/12 09:05:27;;;;;;;7.70;4.50;;;;;;;;;;5002439;28;20227;-26
2023/12/12 09:07:54;;;;;;;8.60;5.97;;;;;;;;;;5011314;28;20214;-26
2023/12/12 09:10:21;;;;;;;13.10;5.50;;;;;;;;;;5013102;28;20211;-28
2023/12/12 09:12:49;;;;;;;6.77;3.60;;;;;;;;;;4995149;28;20232;-29
2023/12/12 09:15:17;;;;;;;7.47;4.00;;;;;;;;;;5012263;28;20231;-26
2023/12/12 09:17:44;;;;;;;6.83;4.23;;;;;;;;;;5001911;28;20213;-28
2023/12/12 09:20:12;;;;;;;8.47;4.60;;;;;;;;;;5006972;28;20211;-28
2023/12/12 09:22:39;;;;;;;7.47;3.90;;;;;;;;;;5013682;28;20211;-28
2023/12/12 09:25:06;;;;;;;6.67;3.77;;;;;;;;;;5013593;28;20235;-28
2023/12/12 09:27:33;;;;;;;7.30;4.27;;;;;;;;;;5011130;28;20207;-26
2023/12/12 09:30:02;;;;;;;9.27;3.90;;;;;;;;;;5014109;28;20293;-26
2023/12/12 09:32:29;;;;;;;6.33;3.73;;;;;;;;;;5014030;28;20223;-27
2023/12/12 09:34:56;;;;;;;9.47;4.07;;;;;;;;;;5004155;28;20237;-27
2023/12/12 09:37:23;;;;;;;7.23;3.73;;;;;;;;;;5006633;28;20221;-28
2023/12/12 09:39:50;;;;;;;5.10;3.77;;;;;;;;;;5013443;28;20211;-28
2023/12/12 09:42:18;;;;;;;4.33;3.33;;;;;;;;;;5007029;28;20204;-26
2023/12/12 09:44:57;;;;;;;5.73;4.30;;;;;;;;;;5007494;28;20226;-27
2023/12/12 09:47:26;;;;;;;5.43;4.10;;;;;;;;;;5012967;28;20211;-26
2023/12/12 09:49:55;;;;;;;5.70;3.43;;;;;;;;;;5002855;28;20238;-26
2023/12/12 09:52:22;;;;;;;7.53;3.83;;;;;;;;;;5007361;28;20231;-27
2023/12/12 09:54:51;;;;;;;3.70;3.30;;;;;;;;;;5007469;28;20224;-26
2023/12/12 09:57:19;;;;;;;6.37;3.73;;;;;;;;;;5002525;28;20207;-27
2023/12/12 09:59:47;;;;;;;6.77;3.90;;;;;;;;;;5007051;28;20203;-28
2023/12/12 10:02:17;;;;;;;6.03;3.47;;;;;;;;;;5012049;28;20204;-25
2023/12/12 10:04:45;;;;;;;10.90;4.27;;;;;;;;;;4997093;28;20238;-27
2023/12/12 10:07:15;;;;;;;6.40;3.80;;;;;;;;;;5015337;28;20207;-26
2023/12/12 10:09:42;;;;;;;6.00;3.67;;;;;;;;;;5019459;28;20242;-27
2023/12/12 10:12:10;;;;;;;4.50;3.50;;;;;;;;;;5003648;28;20207;-26
2023/12/12 10:14:38;;;;;;;5.73;3.90;;;;;;;;;;5002720;28;20466;-26
2023/12/12 10:17:14;;;;;;;9.20;3.70;;;;;;;;;;5012357;28;20207;-27
2023/12/12 10:19:42;;;;;;;5.97;3.63;;;;;;;;;;5007008;28;20226;-28
2023/12/12 10:22:11;;;;;;;7.07;3.67;;;;;;;;;;5010428;28;20294;-27
2023/12/12 10:24:40;;;;;;;4.43;3.40;;;;;;;;;;5010455;28;20266;-26
2023/12/12 10:27:21;;;;;;;5.30;3.30;;;;;;;;;;5012199;28;20199;-27
2023/12/12 10:29:49;;;;;;;3.93;3.30;;;;;;;;;;4998968;28;20265;-25
2023/12/12 10:32:16;;;;;;;6.73;3.50;;;;;;;;;;5003504;28;20223;-28
2023/12/12 10:34:46;;;;;;;9.13;3.70;;;;;;;;;;4989247;28;20233;-27
2023/12/12 10:37:21;;;;;;;4.63;3.43;;;;;;;;;;5009282;28;20207;-26
2023/12/12 10:39:49;;;;;;;5.80;3.47;;;;;;;;;;5012582;28;20269;-27
2023/12/12 10:42:16;;;;;;;5.73;3.83;;;;;;;;;;5005799;28;20214;-27
2023/12/12 10:44:45;;;;;;;6.57;3.57;;;;;;;;;;5011831;28;20253;-27
2023/12/12 10:47:15;;;;;;;5.80;4.03;;;;;;;;;;5011889;28;20210;-28
2023/12/12 10:49:44;;;;;;;7.97;3.50;;;;;;;;;;5002218;28;20229;-28
2023/12/12 10:52:12;;;;;;;5.30;3.80;;;;;;;;;;5008385;28;20214;-29
2023/12/12 10:55:02;;;;;;;4.63;3.87;;;;;;;;;;5007203;28;20227;-30
2023/12/12 10:57:32;;;;;;;5.90;4.37;;;;;;;;;;5003364;28;20206;-28
2023/12/12 11:00:00;;;;;;;6.03;4.17;;;;;;;;;;5006590;28;20219;-27
2023/12/12 11:02:27;;;;;;;6.37;4.87;;;;;;;;;;5019189;28;20202;-26
2023/12/12 11:04:55;;;;;;;5.53;4.17;;;;;;;;;;5004551;28;20231;-27
2023/12/12 11:07:23;;;;;;;10.20;4.40;;;;;;;;;;5010351;28;20238;-28
2023/12/12 11:09:50;;;;;;;5.97;4.47;;;;;;;;;;5019701;28;20207;-27
2023/12/12 11:12:17;;;;;;;9.00;5.27;;;;;;;;;;5016216;28;20203;-28
2023/12/12 11:14:46;;;;;;;12.00;6.20;;;;;;;;;;5006672;28;20231;-28
2023/12/12 11:17:14;;;;;;;10.10;6.30;;;;;;;;;;5019097;28;20233;-26
2023/12/12 11:19:41;;;;;;;10.87;6.33;;;;;;;;;;5001877;28;20210;-27
2023/12/12 11:22:08;;;;;;;7.77;5.00;;;;;;;;;;5007407;28;20211;-27
2023/12/12 11:24:50;;;;;;;7.83;4.00;;;;;;;;;;5018806;28;20227;-26
2023/12/12 11:27:19;;;;;;;9.40;3.90;;;;;;;;;;5010911;28;20203;-27
2023/12/12 11:29:47;;;;;;;5.87;3.53;;;;;;;;;;5009244;28;20393;-27
2023/12/12 11:32:16;;;;;;;4.33;3.20;;;;;;;;;;5007748;28;20215;-29
2023/12/12 11:34:43;;;;;;;6.07;3.07;;;;;;;;;;5005877;28;20226;-27
2023/12/12 11:37:10;;;;;;;3.87;3.03;;;;;;;;;;5015224;28;20207;-26
2023/12/12 11:39:49;;;;;;;4.63;3.27;;;;;;;;;;5019769;28;20199;-29
2023/12/12 11:42:20;;;;;;;4.57;3.30;;;;;;;;;;5005486;28;20311;-27
2023/12/12 11:44:50;;;;;;;7.00;3.50;;;;;;;;;;5011237;28;20223;-26
2023/12/12 11:47:17;;;;;;;7.53;3.40;;;;;;;;;;5019197;28;20214;-26
2023/12/12 11:49:45;;;;;;;5.63;3.50;;;;;;;;;;5003093;28;20651;-31
2023/12/12 11:52:12;;;;;;;5.07;3.23;;;;;;;;;;5019596;28;20298;-26
2023/12/12 11:54:39;;;;;;;4.67;3.37;;;;;;;;;;5019218;28;20325;-29
2023/12/12 11:57:08;;;;;;;4.77;3.70;;;;;;;;;;5024544;28;20289;-26
2023/12/12 11:59:35;;;;;;;3.60;3.23;;;;;;;;;;5006043;28;20557;-28
2023/12/12 12:02:03;;;;;;;4.73;3.30;;;;;;;;;;5022876;28;20229;-27
2023/12/12 12:04:31;;;;;;;7.77;3.90;;;;;;;;;;5008004;28;20230;-27
2023/12/12 12:06:58;;;;;;;5.07;3.20;;;;;;;;;;5001341;28;20267;-28
2023/12/12 12:09:25;;;;;;;6.20;3.47;;;;;;;;;;5014948;28;20211;-26
2023/12/12 12:11:52;;;;;;;186.90;83.33;;;;;;;;;;5025948;28;20220;-28
2023/12/12 12:14:31;;;;;;;118.87;59.60;;;;;;;;;;5012173;28;20236;-28
2023/12/12 12:16:59;;;;;;;64.03;34.10;;;;;;;;;;5014769;28;20230;-29
2023/12/12 12:19:31;;;;;;;11.33;7.10;;;;;;;;;;5002010;28;20242;-26
2023/12/12 12:22:02;;;;;;;5.33;4.07;;;;;;;;;;5014855;28;20241;-27
2023/12/12 12:24:30;;;;;;;8.67;4.10;;;;;;;;;;5016453;28;20227;-26
2023/12/12 12:26:57;;;;;;;6.50;4.20;;;;;;;;;;5018365;28;20211;-28
2023/12/12 12:29:24;;;;;;;6.13;3.70;;;;;;;;;;5003049;28;20212;-28
2023/12/12 12:31:51;;;;;;;8.33;3.80;;;;;;;;;;5011231;28;20212;-26
2023/12/12 12:34:24;;;;;;;7.70;3.73;;;;;;;;;;4999257;28;20242;-26
2023/12/12 12:36:54;;;;;;;7.93;4.87;;;;;;;;;;5015232;28;20211;-25
2023/12/12 12:39:22;;;;;;;3.80;3.40;;;;;;;;;;5023246;28;20207;-29
2023/12/12 12:41:54;;;;;;;5.23;3.30;;;;;;;;;;5019891;28;20239;-26
2023/12/12 12:44:21;;;;;;;4.93;3.33;;;;;;;;;;5010778;28;20232;-25
2023/12/12 12:46:49;;;;;;;5.67;3.40;;;;;;;;;;5033545;28;20207;-26
2023/12/12 12:49:16;;;;;;;7.17;4.10;;;;;;;;;;5008968;28;20204;-28
2023/12/12 12:51:46;;;;;;;6.47;3.60;;;;;;;;;;5011006;28;20207;-25
2023/12/12 12:54:14;;;;;;;4.67;4.07;;;;;;;;;;5029215;28;20230;-27
2023/12/12 12:56:42;;;;;;;5.50;3.97;;;;;;;;;;5014908;28;20214;-28
2023/12/12 12:59:10;;;;;;;5.83;3.83;;;;;;;;;;5032982;28;20261;-25
2023/12/12 13:01:40;;;;;;;7.57;4.23;;;;;;;;;;5021220;28;20211;-27
2023/12/12 13:04:07;;;;;;;7.30;3.70;;;;;;;;;;5002024;28;20228;-26
2023/12/12 13:06:36;;;;;;;11.70;4.50;;;;;;;;;;5012101;28;20217;-27
2023/12/12 13:09:04;;;;;;;5.93;4.10;;;;;;;;;;5022199;28;20211;-28
2023/12/12 13:11:33;;;;;;;7.37;4.23;;;;;;;;;;5015297;28;20236;-27
2023/12/12 13:14:00;;;;;;;6.23;3.97;;;;;;;;;;5020304;28;20238;-26
2023/12/12 13:16:27;;;;;;;6.30;4.50;;;;;;;;;;5015258;28;20218;-27
2023/12/12 13:18:54;;;;;;;4.93;4.20;;;;;;;;;;5002752;28;20223;-29
2023/12/12 13:21:21;;;;;;;7.27;4.50;;;;;;;;;;5020883;28;20207;-26
2023/12/12 13:23:48;;;;;;;7.10;4.97;;;;;;;;;;5021865;28;20229;-28
2023/12/12 13:26:16;;;;;;;7.40;5.50;;;;;;;;;;5011306;28;20265;-27
2023/12/12 13:28:47;;;;;;;10.50;5.27;;;;;;;;;;5017515;28;20203;-28
2023/12/12 13:31:14;;;;;;;11.00;7.13;;;;;;;;;;5015710;28;20216;-26
2023/12/12 13:33:42;;;;;;;9.90;6.60;;;;;;;;;;5009377;28;20220;-26
2023/12/12 13:36:10;;;;;;;14.87;8.37;;;;;;;;;;5014804;28;20253;-27
2023/12/12 13:38:37;;;;;;;8.90;5.67;;;;;;;;;;5030862;28;20645;-27
2023/12/12 13:41:05;;;;;;;13.17;6.00;;;;;;;;;;5013673;28;20211;-28
2023/12/12 13:43:32;;;;;;;8.87;5.70;;;;;;;;;;5013509;28;20199;-27
2023/12/12 13:46:00;;;;;;;9.60;5.23;;;;;;;;;;5014028;28;20310;-26
2023/12/12 13:48:27;;;;;;;8.73;5.50;;;;;;;;;;5006791;28;20204;-26
2023/12/12 13:50:55;;;;;;;8.77;5.33;;;;;;;;;;5007433;28;20207;-27
2023/12/12 13:53:22;;;;;;;9.43;4.70;;;;;;;;;;5029203;28;20203;-27
2023/12/12 13:55:49;;;;;;;7.53;2.73;;;;;;;;;;5014630;28;20239;-26
2023/12/12 13:58:16;;;;;;;7.40;3.57;;;;;;;;;;5010208;28;20211;-27
2023/12/12 14:00:44;;;;;;;2.13;1.73;;;;;;;;;;5022200;28;20199;-26
2023/12/12 14:03:12;;;;;;;2.07;1.90;;;;;;;;;;5011648;28;20207;-28
2023/12/12 14:05:41;;;;;;;1.93;1.33;;;;;;;;;;5001798;28;20220;-26
2023/12/12 14:08:08;;;;;;;1.47;1.37;;;;;;;;;;5014422;28;20223;-26
2023/12/12 14:10:35;;;;;;;2.70;1.67;;;;;;;;;;5011172;28;20208;-28
2023/12/12 14:13:02;;;;;;;1.10;1.00;;;;;;;;;;5006497;28;20207;-28
2023/12/12 14:15:30;;;;;;;1.00;0.90;;;;;;;;;;5021291;28;20231;-24
2023/12/12 14:17:57;;;;;;;0.80;0.80;;;;;;;;;;5004965;28;20211;-26
2023/12/12 14:20:26;;;;;;;2.10;1.00;;;;;;;;;;5004745;28;20286;-27
2023/12/12 14:22:55;;;;;;;0.90;0.90;;;;;;;;;;5013161;28;20211;-26
2023/12/12 14:25:22;;;;;;;0.70;0.70;;;;;;;;;;5021631;28;20234;-27
2023/12/12 14:27:51;;;;;;;0.80;0.80;;;;;;;;;;4999973;28;20203;-28
2023/12/12 14:30:25;;;;;;;0.70;0.67;;;;;;;;;;5015513;28;20242;-25
2023/12/12 14:32:52;;;;;;;1.00;0.60;;;;;;;;;;5000664;28;20230;-25
2023/12/12 14:35:19;;;;;;;0.60;0.60;;;;;;;;;;5011868;28;20231;-27
2023/12/12 14:37:48;;;;;;;1.87;1.30;;;;;;;;;;5011054;28;20204;-28
2023/12/12 14:40:15;;;;;;;3.67;3.20;;;;;;;;;;5019126;28;20203;-29
2023/12/12 14:42:42;;;;;;;3.83;2.40;;;;;;;;;;5008640;28;20209;-28
2023/12/12 14:45:09;;;;;;;3.57;2.10;;;;;;;;;;5012025;28;20227;-28
2023/12/12 14:47:37;;;;;;;1.13;1.07;;;;;;;;;;5012211;28;20209;-27
2023/12/12 14:50:05;;;;;;;0.87;0.87;;;;;;;;;;4998488;28;20214;-26